Time;durP1;ratioP1;P1;durP2;ratioP2;P2;SDS_P1;SDS_P2;PMS_P1;PMS_P2;Temp;Humidity;BMP_temperature;BMP_pressure;BME280_temperature;BME280_humidity;BME280_pressure;Samples;Min_cycle;Max_cycle;Signal;HPM_P1;HPM_P2
2021/06/05 00:00:42;;;;;;;2.10;0.80;;;;;;;7.03;74.00;101058.19;3607352;39;20307;-53
2021/06/05 00:03:12;;;;;;;6.05;1.70;;;;;;;7.00;74.36;101054.88;3606697;39;20047;-54
2021/06/05 00:05:58;;;;;;;6.47;1.48;;;;;;;6.98;73.52;101048.88;3606887;39;20087;-53
2021/06/05 00:08:31;;;;;;;2.58;1.30;;;;;;;6.95;72.20;101047.25;3606956;39;20047;-56
2021/06/05 00:11:03;;;;;;;7.43;1.60;;;;;;;6.90;72.90;101041.41;3606652;39;20051;-55
2021/06/05 00:13:35;;;;;;;5.40;1.50;;;;;;;6.81;77.15;101037.47;3605097;39;20355;-52
2021/06/05 00:16:05;;;;;;;6.00;2.05;;;;;;;6.72;73.42;101031.81;3607091;39;20060;-56
2021/06/05 00:18:34;;;;;;;5.45;1.60;;;;;;;6.68;74.55;101036.31;3606707;39;20048;-55
2021/06/05 00:21:04;;;;;;;4.57;2.10;;;;;;;6.63;75.78;101033.91;3606945;39;20048;-56
2021/06/05 00:23:32;;;;;;;3.90;1.73;;;;;;;6.60;76.41;101033.22;3606815;39;20040;-52
2021/06/05 00:25:59;;;;;;;2.67;1.67;;;;;;;6.59;74.79;101034.09;3606777;39;20456;-55
2021/06/05 00:28:27;;;;;;;6.30;1.52;;;;;;;6.56;75.22;101029.06;3606798;39;20069;-56
2021/06/05 00:30:54;;;;;;;1.38;0.93;;;;;;;6.54;73.77;101034.28;3606612;39;20051;-53
2021/06/05 00:33:22;;;;;;;1.75;1.00;;;;;;;6.53;74.60;101027.41;3606868;39;20107;-54
2021/06/05 00:35:50;;;;;;;4.90;1.50;;;;;;;6.51;74.68;101031.00;3606723;39;20043;-54
2021/06/05 00:38:18;;;;;;;2.60;1.20;;;;;;;6.50;74.23;101030.13;3605032;39;20051;-54
2021/06/05 00:40:51;;;;;;;4.38;1.15;;;;;;;6.49;74.63;101030.19;3606957;39;20094;-55
2021/06/05 00:43:24;;;;;;;5.57;1.33;;;;;;;6.46;75.73;101023.41;3604946;39;20136;-54
2021/06/05 00:45:52;;;;;;;1.93;0.90;;;;;;;6.45;75.71;101019.09;3604996;39;20656;-54
2021/06/05 00:48:22;;;;;;;2.42;1.30;;;;;;;6.44;75.12;101017.41;3605577;39;20402;-56
2021/06/05 00:50:57;;;;;;;4.20;1.20;;;;;;;6.40;76.72;101016.69;3606752;39;20048;-55
2021/06/05 00:53:30;;;;;;;2.58;1.20;;;;;;;6.41;75.49;101017.56;3605561;39;20729;-55
2021/06/05 00:56:00;;;;;;;2.25;1.40;;;;;;;6.37;76.19;101011.63;3606407;39;20063;-56
2021/06/05 00:58:29;;;;;;;3.65;1.75;;;;;;;6.37;75.09;101019.44;3603520;39;20058;-54
2021/06/05 01:01:08;;;;;;;3.50;1.50;;;;;;;6.37;75.29;101008.19;3605700;39;20040;-56
2021/06/05 01:03:38;;;;;;;1.92;1.20;;;;;;;6.36;74.67;101009.09;3603455;39;20043;-52
2021/06/05 01:06:20;;;;;;;3.60;1.40;;;;;;;6.36;75.14;101015.16;3606638;39;20048;-53
2021/06/05 01:09:07;;;;;;;2.42;1.30;;;;;;;6.37;75.80;101021.19;3606874;39;20465;-55
2021/06/05 01:12:02;;;;;;;6.05;1.83;;;;;;;6.36;77.46;101019.47;3605545;39;20143;-55
2021/06/05 01:14:44;;;;;;;2.58;1.27;;;;;;;6.34;75.46;101016.09;3605499;39;20080;-54
2021/06/05 01:17:18;;;;;;;4.68;1.35;;;;;;;6.31;76.55;101017.06;3606491;39;20055;-58
2021/06/05 01:19:56;;;;;;;3.90;2.07;;;;;;;6.29;77.15;101020.66;3603241;39;20067;-52
2021/06/05 01:22:57;;;;;;;2.33;1.20;;;;;;;6.33;76.91;101019.63;3605224;39;20105;-55
2021/06/05 01:25:35;;;;;;;3.35;1.15;;;;;;;6.34;75.72;101019.53;3606170;39;20345;-56
2021/06/05 01:28:16;;;;;;;2.35;1.23;;;;;;;6.37;76.08;101022.03;3606446;39;20059;-55
2021/06/05 01:30:48;;;;;;;3.75;1.40;;;;;;;6.40;74.18;101019.28;3605992;39;20086;-53
2021/06/05 01:33:23;;;;;;;2.45;1.50;;;;;;;6.45;75.18;101011.28;3605014;39;20064;-57
2021/06/05 01:35:55;;;;;;;10.20;4.90;;;;;;;6.50;73.74;101011.94;3605002;39;20040;-48
2021/06/05 01:38:25;;;;;;;4.68;2.63;;;;;;;6.55;74.45;101006.53;3606358;39;20074;-54
2021/06/05 01:40:55;;;;;;;2.88;1.40;;;;;;;6.57;74.53;101002.16;3606396;39;20320;-54
2021/06/05 01:43:26;;;;;;;3.55;1.75;;;;;;;6.61;74.52;101001.09;3604280;39;20048;-54
2021/06/05 01:45:59;;;;;;;3.08;1.70;;;;;;;6.63;75.74;101000.09;3605031;39;20039;-53
2021/06/05 01:48:27;;;;;;;2.80;1.58;;;;;;;6.68;76.25;100999.91;3604716;39;20043;-53
2021/06/05 01:51:02;;;;;;;2.92;1.23;;;;;;;6.69;76.89;100991.19;3606103;39;20402;-55
2021/06/05 01:53:38;;;;;;;3.78;1.75;;;;;;;6.73;76.25;100984.94;3605230;39;20458;-56
2021/06/05 01:56:15;;;;;;;3.53;1.40;;;;;;;6.71;79.03;100986.78;3605845;39;20028;-55
2021/06/05 01:58:44;;;;;;;1.45;1.10;;;;;;;6.74;78.51;100997.06;3606854;39;20044;-59
2021/06/05 02:01:19;;;;;;;2.25;1.42;;;;;;;6.75;79.27;100996.16;3606712;39;20106;-58
2021/06/05 02:03:49;;;;;;;2.15;1.38;;;;;;;6.77;79.18;100994.31;3606774;39;20044;-57
2021/06/05 02:06:28;;;;;;;3.70;1.63;;;;;;;6.84;78.54;100998.34;3607760;39;20333;-55
2021/06/05 02:09:02;;;;;;;81.57;33.33;;;;;;;6.93;78.05;101000.53;3608005;39;20406;-55
2021/06/05 02:11:39;;;;;;;24.60;9.45;;;;;;;7.01;77.37;101000.16;3607881;39;20048;-58
2021/06/05 02:14:13;;;;;;;6.65;2.70;;;;;;;7.11;77.13;100992.78;3607941;39;20052;-57
2021/06/05 02:16:49;;;;;;;6.57;3.22;;;;;;;7.20;77.04;100997.56;3606730;39;20044;-54
2021/06/05 02:19:44;;;;;;;4.50;2.28;;;;;;;7.32;78.08;100993.59;3606117;39;20052;-58
2021/06/05 02:22:32;;;;;;;9.00;3.17;;;;;;;7.40;75.40;100994.88;3607488;39;20091;-58
2021/06/05 02:25:02;;;;;;;9.23;3.92;;;;;;;7.51;73.15;100993.56;3607593;39;20054;-58
2021/06/05 02:27:37;;;;;;;5.75;2.97;;;;;;;7.60;74.18;100993.13;3607486;39;20039;-57
2021/06/05 02:30:18;;;;;;;123.40;59.67;;;;;;;7.73;74.74;100990.75;3604988;39;20056;-55
2021/06/05 02:32:49;;;;;;;68.95;29.50;;;;;;;7.80;77.30;100980.00;3606186;39;20055;-58
2021/06/05 02:35:35;;;;;;;48.17;23.00;;;;;;;7.92;74.75;100973.31;3607390;39;20044;-52
2021/06/05 02:38:17;;;;;;;38.53;16.70;;;;;;;8.03;74.56;100976.25;3607574;39;20044;-57
2021/06/05 02:40:46;;;;;;;11.27;4.22;;;;;;;8.12;78.74;100977.56;3606551;39;20131;-52
2021/06/05 02:43:22;;;;;;;47.65;22.60;;;;;;;8.25;73.46;100975.16;3607123;39;20048;-51
2021/06/05 02:46:15;;;;;;;18.38;8.32;;;;;;;8.35;76.13;100971.16;3607378;39;20070;-52
2021/06/05 02:48:51;;;;;;;7.88;3.05;;;;;;;8.48;80.22;100963.59;3605965;39;20053;-54
2021/06/05 02:51:28;;;;;;;3.83;1.80;;;;;;;8.61;79.38;100962.88;3606407;39;20048;-55
2021/06/05 02:53:57;;;;;;;2.65;1.42;;;;;;;8.72;78.93;100970.13;3606704;39;20055;-54
2021/06/05 02:56:25;;;;;;;3.90;1.90;;;;;;;8.84;75.67;100966.06;3606162;39;20043;-55
2021/06/05 02:58:56;;;;;;;2.70;1.35;;;;;;;8.96;77.01;100958.41;3607349;39;20051;-58
2021/06/05 03:01:27;;;;;;;72.93;29.15;;;;;;;9.07;78.07;100955.22;3607490;39;20048;-57
2021/06/05 03:03:57;;;;;;;103.85;47.15;;;;;;;9.18;74.72;100952.03;3606859;39;20333;-57
2021/06/05 03:06:25;;;;;;;56.88;26.08;;;;;;;9.31;74.35;100960.03;3607071;39;20067;-58
2021/06/05 03:08:52;;;;;;;22.90;9.80;;;;;;;9.44;75.36;100947.97;3606247;39;20067;-56
2021/06/05 03:11:21;;;;;;;9.98;5.10;;;;;;;9.60;75.43;100946.19;3590927;39;20056;-58
2021/06/05 03:13:54;;;;;;;4.20;2.30;;;;;;;9.74;74.33;100945.41;3605605;39;20058;-56
2021/06/05 03:16:22;;;;;;;4.22;2.17;;;;;;;9.89;76.62;100949.72;3607491;39;20059;-57
2021/06/05 03:18:56;;;;;;;4.25;1.70;;;;;;;10.08;77.05;100946.88;3605875;39;20052;-57
2021/06/05 03:21:25;;;;;;;3.08;1.80;;;;;;;10.22;77.28;100943.47;3606043;39;20057;-54
2021/06/05 03:24:02;;;;;;;2.05;1.17;;;;;;;10.38;76.78;100936.41;3607422;39;20058;-58
2021/06/05 03:26:33;;;;;;;105.88;55.15;;;;;;;10.55;77.86;100937.19;3604647;39;20095;-56
2021/06/05 03:29:04;;;;;;;125.60;60.15;;;;;;;10.71;77.00;100932.69;3606074;39;20063;-57
2021/06/05 03:31:33;;;;;;;73.82;39.90;;;;;;;10.86;75.67;100934.34;3605743;39;20414;-54
2021/06/05 03:34:03;;;;;;;20.48;10.30;;;;;;;11.02;74.19;100929.84;3607048;39;20129;-58
2021/06/05 03:36:31;;;;;;;9.73;5.28;;;;;;;11.19;73.12;100927.94;3606105;39;20055;-54
2021/06/05 03:39:03;;;;;;;5.60;2.88;;;;;;;11.35;72.66;100926.03;3606981;39;20047;-60
2021/06/05 03:41:36;;;;;;;3.38;1.67;;;;;;;11.48;70.45;100916.41;3606200;39;20043;-56
2021/06/05 03:44:05;;;;;;;6.18;1.52;;;;;;;11.63;70.19;100917.22;3606186;39;20144;-55
2021/06/05 03:46:34;;;;;;;3.28;1.25;;;;;;;11.87;69.71;100909.53;3606907;39;20052;-58
2021/06/05 03:49:05;;;;;;;2.67;1.25;;;;;;;12.01;69.89;100911.22;3604223;39;20457;-56
2021/06/05 03:51:33;;;;;;;13.05;6.43;;;;;;;12.18;70.09;100918.78;3607250;39;20039;-54
2021/06/05 03:54:05;;;;;;;51.00;23.67;;;;;;;12.40;69.20;100915.56;3606737;39;20319;-56
2021/06/05 03:56:34;;;;;;;13.25;6.97;;;;;;;12.62;68.02;100906.16;3606746;39;20036;-55
2021/06/05 03:59:02;;;;;;;4.35;2.45;;;;;;;12.78;68.42;100909.41;3606943;39;20088;-55
2021/06/05 04:01:30;;;;;;;3.10;1.58;;;;;;;12.89;68.21;100900.78;3607021;39;20047;-55
2021/06/05 04:03:58;;;;;;;3.83;1.40;;;;;;;13.02;67.00;100905.03;3605229;39;20093;-56
2021/06/05 04:06:26;;;;;;;4.18;1.58;;;;;;;13.14;66.92;100889.34;3607127;39;20102;-56
2021/06/05 04:08:55;;;;;;;3.17;1.33;;;;;;;13.28;66.15;100889.19;3605283;39;20396;-56
2021/06/05 04:11:23;;;;;;;3.38;1.33;;;;;;;13.43;67.39;100890.69;3606732;39;20128;-53
2021/06/05 04:13:51;;;;;;;1.98;1.20;;;;;;;13.62;66.72;100889.34;3607004;39;20047;-55
2021/06/05 04:16:18;;;;;;;2.17;1.10;;;;;;;13.82;66.60;100891.34;3606896;39;20056;-56
2021/06/05 04:18:46;;;;;;;2.92;1.20;;;;;;;14.01;65.45;100883.72;3606429;39;20054;-56
2021/06/05 04:21:17;;;;;;;2.65;1.40;;;;;;;14.17;64.50;100890.44;3606649;39;20511;-56
2021/06/05 04:23:45;;;;;;;2.22;1.38;;;;;;;14.33;63.70;100897.03;3606840;39;20059;-57
2021/06/05 04:26:13;;;;;;;2.38;1.33;;;;;;;14.48;63.24;100891.56;3606810;39;20047;-57
2021/06/05 04:28:41;;;;;;;1.90;1.20;;;;;;;14.60;64.17;100890.59;3606651;39;20044;-57
2021/06/05 04:31:09;;;;;;;1.65;0.95;;;;;;;14.74;64.71;100874.56;3607039;39;20058;-58
2021/06/05 04:33:37;;;;;;;3.00;1.10;;;;;;;14.89;62.83;100880.41;3606773;39;20091;-57
2021/06/05 04:36:10;;;;;;;3.20;1.60;;;;;;;15.15;66.07;100877.47;3606951;39;20140;-57
2021/06/05 04:38:39;;;;;;;1.48;0.90;;;;;;;15.32;61.91;100871.66;3606805;39;20105;-57
2021/06/05 04:41:08;;;;;;;1.98;1.10;;;;;;;15.42;61.69;100882.28;3607193;39;20048;-56
2021/06/05 04:43:35;;;;;;;1.98;1.42;;;;;;;15.68;63.19;100867.81;3606444;39;20399;-57
2021/06/05 04:46:02;;;;;;;3.42;1.48;;;;;;;15.86;63.01;100871.56;3604379;39;20052;-57
2021/06/05 04:48:30;;;;;;;2.78;1.45;;;;;;;15.97;62.55;100873.28;3606843;39;20071;-55
2021/06/05 04:50:58;;;;;;;1.40;1.00;;;;;;;16.08;62.25;100875.81;3605516;39;20040;-56
2021/06/05 04:53:25;;;;;;;2.03;1.17;;;;;;;16.26;62.53;100877.88;3606341;39;20055;-57
2021/06/05 04:55:53;;;;;;;1.85;1.25;;;;;;;16.42;61.29;100869.47;3606318;39;20080;-57
2021/06/05 04:58:21;;;;;;;3.13;1.10;;;;;;;16.57;60.27;100874.25;3606741;39;20092;-55
2021/06/05 05:00:51;;;;;;;3.10;1.42;;;;;;;16.70;60.15;100862.59;3606901;39;20044;-57
2021/06/05 05:03:22;;;;;;;1.50;0.88;;;;;;;16.81;60.68;100870.47;3606681;39;20039;-56
2021/06/05 05:05:52;;;;;;;2.35;1.33;;;;;;;16.90;59.10;100867.00;3606529;39;20052;-57
2021/06/05 05:08:20;;;;;;;3.42;0.90;;;;;;;17.02;59.61;100854.50;3606804;39;20051;-56
2021/06/05 05:10:50;;;;;;;2.20;1.10;;;;;;;17.09;57.85;100853.84;3605910;39;20339;-57
2021/06/05 05:13:25;;;;;;;3.03;1.08;;;;;;;17.22;56.08;100850.06;3605687;39;20274;-57
2021/06/05 05:15:54;;;;;;;3.05;1.13;;;;;;;17.27;55.84;100846.03;3606464;39;20062;-57
2021/06/05 05:18:22;;;;;;;1.83;0.88;;;;;;;17.39;55.94;100849.38;3604330;39;20054;-57
2021/06/05 05:20:51;;;;;;;3.35;1.00;;;;;;;17.52;55.37;100843.78;3606695;39;20059;-58
2021/06/05 05:23:20;;;;;;;3.13;1.02;;;;;;;17.66;53.46;100841.56;3606525;39;20080;-57
2021/06/05 05:25:48;;;;;;;3.38;1.10;;;;;;;17.79;54.95;100841.28;3606167;39;20051;-55
2021/06/05 05:28:17;;;;;;;2.95;0.90;;;;;;;17.87;55.14;100844.06;3606572;39;20093;-54
2021/06/05 05:30:49;;;;;;;15.30;1.20;;;;;;;18.00;55.49;100834.97;3608079;39;20050;-56
2021/06/05 05:33:17;;;;;;;11.20;1.40;;;;;;;18.13;55.63;100840.75;3605664;39;20086;-54
2021/06/05 05:35:45;;;;;;;2.40;0.95;;;;;;;18.29;56.20;100837.53;3607802;39;20484;-57
2021/06/05 05:38:17;;;;;;;5.40;1.08;;;;;;;18.45;55.38;100840.34;3607525;39;20063;-52
2021/06/05 05:40:45;;;;;;;40.30;21.33;;;;;;;18.54;55.17;100828.06;3607793;39;20127;-57
2021/06/05 05:43:12;;;;;;;100.80;50.97;;;;;;;18.68;55.44;100841.66;3607887;39;20055;-59
2021/06/05 05:45:40;;;;;;;23.90;12.05;;;;;;;18.79;53.69;100837.97;3608005;39;20062;-59
2021/06/05 05:48:11;;;;;;;7.40;3.17;;;;;;;18.94;54.38;100830.31;3607581;39;20044;-54
2021/06/05 05:50:40;;;;;;;2.47;1.50;;;;;;;19.07;54.09;100832.63;3606057;39;20326;-56
2021/06/05 05:53:08;;;;;;;3.70;1.50;;;;;;;19.11;54.02;100826.88;3607383;39;20059;-57
2021/06/05 05:55:35;;;;;;;4.60;3.00;;;;;;;19.22;54.19;100828.44;3607517;39;20124;-57
2021/06/05 05:58:05;;;;;;;2.85;1.48;;;;;;;19.27;53.94;100826.16;3606366;39;20105;-55
2021/06/05 06:00:36;;;;;;;2.28;1.38;;;;;;;19.36;54.83;100830.56;3607736;39;20043;-56
2021/06/05 06:03:05;;;;;;;7.82;5.00;;;;;;;19.43;53.97;100815.72;3606560;39;20358;-55
2021/06/05 06:05:39;;;;;;;6.55;4.30;;;;;;;19.55;54.04;100821.59;3605230;39;20075;-58
2021/06/05 06:08:33;;;;;;;3.80;2.03;;;;;;;19.69;52.87;100825.53;3607088;39;20048;-57
2021/06/05 06:11:25;;;;;;;1.85;0.95;;;;;;;19.77;51.92;100820.28;3606565;39;20105;-57
2021/06/05 06:14:14;;;;;;;2.35;1.17;;;;;;;19.85;51.26;100819.53;3607432;39;20711;-57
2021/06/05 06:16:48;;;;;;;4.40;1.65;;;;;;;19.78;52.33;100826.44;3607615;39;20339;-57
2021/06/05 06:19:16;;;;;;;4.82;1.40;;;;;;;19.84;51.94;100813.34;3607711;39;20194;-58
2021/06/05 06:21:44;;;;;;;3.13;1.40;;;;;;;19.88;50.62;100819.19;3607723;39;20051;-56
2021/06/05 06:24:12;;;;;;;2.95;0.90;;;;;;;20.04;51.70;100819.28;3607806;39;20053;-58
2021/06/05 06:26:40;;;;;;;1.45;1.00;;;;;;;20.14;52.24;100817.34;3607821;39;20040;-57
2021/06/05 06:29:19;;;;;;;2.30;1.05;;;;;;;20.25;52.01;100818.88;3605010;39;20051;-56
2021/06/05 06:31:48;;;;;;;3.80;1.05;;;;;;;20.38;50.52;100815.78;3607309;39;20054;-57
2021/06/05 06:34:16;;;;;;;9.00;4.28;;;;;;;20.51;52.27;100813.56;3607206;39;20036;-57
2021/06/05 06:36:44;;;;;;;34.45;17.30;;;;;;;20.62;49.71;100809.75;3598031;39;20044;-59
2021/06/05 06:39:14;;;;;;;12.25;5.63;;;;;;;20.80;50.65;100818.44;3607134;39;20714;-57
2021/06/05 06:41:42;;;;;;;6.65;1.30;;;;;;;20.84;46.78;100811.81;3606902;39;20083;-58
2021/06/05 06:44:11;;;;;;;6.63;1.30;;;;;;;20.77;46.74;100809.97;3605423;39;20039;-57
2021/06/05 06:46:44;;;;;;;3.78;1.13;;;;;;;20.93;46.74;100796.69;3607720;39;20051;-53
2021/06/05 06:49:15;;;;;;;2.33;1.17;;;;;;;21.07;48.92;100804.00;3607586;39;20135;-57
2021/06/05 06:51:43;;;;;;;4.95;1.08;;;;;;;21.20;49.21;100798.22;3605736;39;20302;-58
2021/06/05 06:54:13;;;;;;;2.83;1.10;;;;;;;21.34;48.31;100799.41;3607154;39;20044;-58
2021/06/05 06:56:42;;;;;;;3.05;1.10;;;;;;;21.45;48.85;100799.06;3607245;39;20027;-58
2021/06/05 06:59:10;;;;;;;275.00;124.43;;;;;;;21.61;46.79;100793.72;3607500;39;20190;-56
2021/06/05 07:01:37;;;;;;;39.25;21.73;;;;;;;21.73;46.98;100791.53;3606438;39;20077;-57
2021/06/05 07:04:05;;;;;;;6.45;2.80;;;;;;;21.82;45.72;100795.84;3607289;39;20128;-58
2021/06/05 07:06:34;;;;;;;7.72;1.45;;;;;;;21.92;45.41;100785.81;3605866;39;20055;-55
2021/06/05 07:09:04;;;;;;;3.47;1.10;;;;;;;21.91;44.11;100784.16;3607235;39;20105;-56
2021/06/05 07:11:33;;;;;;;4.82;1.00;;;;;;;22.08;46.73;100787.63;3607066;39;20059;-58
2021/06/05 07:14:03;;;;;;;2.60;0.98;;;;;;;22.24;45.39;100779.59;3607040;39;20062;-58
2021/06/05 07:16:33;;;;;;;5.20;1.10;;;;;;;22.38;44.72;100778.03;3607402;39;20048;-58
2021/06/05 07:19:00;;;;;;;2.65;1.00;;;;;;;22.46;40.49;100783.31;3606984;39;20055;-55
2021/06/05 07:21:27;;;;;;;114.10;62.10;;;;;;;22.46;39.25;100777.97;3607031;39;20081;-58
2021/06/05 07:23:55;;;;;;;13.32;7.35;;;;;;;22.53;37.43;100778.09;3605169;39;20044;-60
2021/06/05 07:26:25;;;;;;;3.05;1.02;;;;;;;22.55;37.38;100781.44;3607021;39;20070;-58
2021/06/05 07:28:59;;;;;;;6.28;1.40;;;;;;;22.68;39.33;100776.34;3607348;39;20313;-58
2021/06/05 07:31:31;;;;;;;5.55;0.95;;;;;;;22.73;37.11;100775.81;3607128;39;20047;-58
2021/06/05 07:33:59;;;;;;;3.77;1.40;;;;;;;22.80;37.53;100775.94;3607264;39;20305;-57
2021/06/05 07:36:32;;;;;;;2.22;1.10;;;;;;;22.87;39.22;100777.72;3606897;39;20051;-58
2021/06/05 07:38:59;;;;;;;;;;;;;;;22.75;36.55;100768.47;3606734;39;20406;-55
2021/06/05 07:41:26;;;;;;;3.08;1.00;;;;;;;22.87;37.24;100775.03;3607176;39;20206;-58
2021/06/05 07:43:54;;;;;;;9.65;1.08;;;;;;;22.91;36.85;100767.56;3607181;39;20105;-58
2021/06/05 07:46:21;;;;;;;38.88;21.02;;;;;;;23.06;37.32;100775.63;3606821;39;20055;-58
2021/06/05 07:48:49;;;;;;;17.70;7.43;;;;;;;23.18;36.67;100777.69;3607078;39;20059;-57
2021/06/05 07:51:18;;;;;;;4.03;1.10;;;;;;;22.69;34.07;100763.84;3607009;39;20048;-57
2021/06/05 07:53:47;;;;;;;2.00;1.20;;;;;;;22.96;36.32;100760.69;3606876;39;20131;-59
2021/06/05 07:56:16;;;;;;;2.45;1.20;;;;;;;23.13;36.88;100758.72;3606998;39;20050;-60
2021/06/05 07:58:44;;;;;;;3.25;1.38;;;;;;;23.27;38.23;100749.09;3606885;39;20051;-57
2021/06/05 08:01:12;;;;;;;1.95;1.08;;;;;;;23.41;39.10;100750.13;3605029;39;20062;-58
2021/06/05 08:03:39;;;;;;;36.80;20.25;;;;;;;23.65;40.79;100757.91;3606950;39;20059;-57
2021/06/05 08:06:09;;;;;;;6.40;3.08;;;;;;;23.62;39.30;100757.41;3607207;39;20706;-56
2021/06/05 08:08:37;;;;;;;4.72;1.15;;;;;;;23.58;35.07;100756.13;3607129;39;20047;-55
2021/06/05 08:11:05;;;;;;;9.23;1.15;;;;;;;23.74;35.28;100753.31;3606597;39;20047;-57
2021/06/05 08:13:33;;;;;;;2.90;1.10;;;;;;;23.88;34.19;100744.47;3607022;39;20039;-57
2021/06/05 08:16:01;;;;;;;17.48;1.65;;;;;;;23.88;33.95;100749.81;3607117;39;20047;-57
2021/06/05 08:18:28;;;;;;;2.70;0.90;;;;;;;23.99;35.85;100749.34;3607399;39;20054;-58
2021/06/05 08:21:00;;;;;;;4.63;1.50;;;;;;;24.03;35.59;100741.78;3605864;39;20051;-59
2021/06/05 08:23:30;;;;;;;70.18;39.80;;;;;;;24.15;35.60;100745.63;3605490;39;20068;-57
2021/06/05 08:25:57;;;;;;;3.10;1.90;;;;;;;24.08;30.88;100743.91;3606879;39;20047;-57
2021/06/05 08:28:26;;;;;;;3.25;1.60;;;;;;;24.19;33.28;100740.75;3606839;39;20052;-54
2021/06/05 08:30:56;;;;;;;4.10;1.13;;;;;;;24.32;34.06;100735.56;3606794;39;20075;-58
2021/06/05 08:33:24;;;;;;;7.25;1.20;;;;;;;24.45;32.31;100733.06;3606770;39;20107;-58
2021/06/05 08:35:52;;;;;;;6.53;1.00;;;;;;;24.46;33.36;100737.41;3606063;39;20039;-57
2021/06/05 08:38:22;;;;;;;1.73;1.00;;;;;;;24.53;35.61;100734.78;3606580;39;20083;-54
2021/06/05 08:41:22;;;;;;;3.63;0.80;;;;;;;24.75;36.18;100725.75;3606589;39;20048;-56
2021/06/05 08:44:16;;;;;;;3.50;1.00;;;;;;;24.32;28.93;100724.03;3606253;39;20056;-56
2021/06/05 08:47:17;;;;;;;5.30;0.93;;;;;;;24.48;32.47;100727.31;3606124;39;20055;-57
2021/06/05 08:49:45;;;;;;;1.83;1.10;;;;;;;24.62;34.86;100714.91;3606593;39;20048;-57
2021/06/05 08:52:36;;;;;;;4.30;1.10;;;;;;;24.62;33.66;100708.75;3606898;39;20052;-54
2021/06/05 08:55:16;;;;;;;1.63;0.85;;;;;;;24.72;34.22;100707.41;3606297;39;20036;-57
2021/06/05 08:57:52;;;;;;;2.20;0.80;;;;;;;24.62;31.43;100708.75;3606407;39;20109;-57
2021/06/05 09:00:34;;;;;;;1.77;0.70;;;;;;;24.74;30.77;100709.91;3606746;39;20754;-57
2021/06/05 09:03:21;;;;;;;5.55;1.33;;;;;;;24.90;31.64;100701.59;3604184;39;20050;-57
2021/06/05 09:06:00;;;;;;;1.58;0.82;;;;;;;24.94;34.54;100705.53;3605343;39;20051;-57
2021/06/05 09:08:29;;;;;;;1.63;0.95;;;;;;;25.06;33.51;100691.63;3606423;39;20101;-57
2021/06/05 09:11:08;;;;;;;3.05;0.75;;;;;;;25.22;30.98;100694.06;3606422;39;20087;-57
2021/06/05 09:13:36;;;;;;;2.63;0.95;;;;;;;25.34;30.75;100694.31;3605579;39;20052;-57
2021/06/05 09:16:19;;;;;;;2.38;1.00;;;;;;;25.35;32.04;100694.13;3606131;39;20051;-57
2021/06/05 09:19:02;;;;;;;251.63;155.07;;;;;;;25.56;33.05;100700.44;3606318;39;20109;-60
2021/06/05 09:21:34;;;;;;;158.10;109.20;;;;;;;25.80;33.04;100686.59;3604598;39;20044;-54
2021/06/05 09:24:29;;;;;;;6.38;3.80;;;;;;;26.09;30.90;100692.69;3606421;39;20075;-58
2021/06/05 09:27:18;;;;;;;5.80;1.65;;;;;;;26.37;29.64;100685.31;3606647;39;20055;-58
2021/06/05 09:29:54;;;;;;;1.90;1.00;;;;;;;26.53;32.35;100678.78;3606577;39;20429;-58
2021/06/05 09:32:26;;;;;;;3.30;0.90;;;;;;;26.69;33.92;100682.94;3606483;39;20083;-59
2021/06/05 09:34:55;;;;;;;6.43;1.20;;;;;;;26.75;31.81;100679.41;3605882;39;20070;-57
2021/06/05 09:37:43;;;;;;;1.73;0.82;;;;;;;26.60;32.78;100684.16;3606248;39;20073;-58
2021/06/05 09:40:20;;;;;;;1.40;0.90;;;;;;;26.16;29.10;100674.75;3606275;39;20132;-57
2021/06/05 09:42:55;;;;;;;1.95;1.00;;;;;;;26.28;32.41;100671.28;3604096;39;20062;-58
2021/06/05 09:45:28;;;;;;;1.70;0.95;;;;;;;26.23;33.24;100679.09;3606069;39;20036;-58
2021/06/05 09:48:20;;;;;;;6.03;3.10;;;;;;;25.93;31.43;100665.19;3606433;39;20325;-55
2021/06/05 09:50:50;;;;;;;3.20;1.20;;;;;;;25.61;32.63;100672.03;3605899;39;20056;-49
2021/06/05 09:53:19;;;;;;;2.15;1.00;;;;;;;25.23;31.76;100667.06;3605077;39;20331;-54
2021/06/05 09:55:47;;;;;;;4.80;1.00;;;;;;;25.13;33.52;100666.59;3606286;39;20051;-60
2021/06/05 09:58:35;;;;;;;2.67;1.10;;;;;;;25.52;33.93;100670.53;3606023;39;20415;-59
2021/06/05 10:01:21;;;;;;;2.67;1.30;;;;;;;26.21;30.81;100675.00;3606276;39;20067;-57
2021/06/05 10:03:57;;;;;;;14.00;7.18;;;;;;;26.30;32.42;100671.91;3605119;39;20047;-52
2021/06/05 10:06:30;;;;;;;18.02;10.48;;;;;;;25.99;31.53;100672.44;3604002;39;20062;-58
2021/06/05 10:08:58;;;;;;;5.93;1.65;;;;;;;26.01;32.71;100672.22;3605810;39;20058;-53
2021/06/05 10:11:32;;;;;;;1.45;0.93;;;;;;;25.82;32.30;100660.41;3606059;39;20670;-56
2021/06/05 10:14:14;;;;;;;7.45;1.02;;;;;;;26.20;33.20;100662.59;3606280;39;21346;-56
2021/06/05 10:16:57;;;;;;;1.40;1.00;;;;;;;26.57;32.65;100655.88;3606889;39;20060;-57
2021/06/05 10:20:02;;;;;;;4.32;0.88;;;;;;;27.16;29.69;100652.38;3607706;39;20051;-57
2021/06/05 10:22:33;;;;;;;3.10;1.00;;;;;;;27.28;28.95;100658.75;3606714;39;20059;-57
2021/06/05 10:25:40;;;;;;;2.65;0.90;;;;;;;27.51;30.07;100649.38;3607575;39;20051;-57
2021/06/05 10:28:13;;;;;;;1.75;1.00;;;;;;;27.65;28.69;100651.00;3607173;39;20383;-57
2021/06/05 10:30:54;;;;;;;1.23;0.93;;;;;;;27.94;27.65;100646.13;3607804;39;20055;-58
2021/06/05 10:33:44;;;;;;;1.63;0.98;;;;;;;28.26;32.12;100653.19;3606980;39;20172;-56
2021/06/05 10:36:17;;;;;;;3.65;1.20;;;;;;;28.42;27.56;100649.19;3606773;39;20058;-57
2021/06/05 10:38:49;;;;;;;2.40;0.95;;;;;;;28.72;27.93;100645.84;3605666;39;20052;-54
2021/06/05 10:41:30;;;;;;;2.10;0.98;;;;;;;28.96;27.45;100636.13;3607531;39;20051;-55
2021/06/05 10:43:58;;;;;;;39.97;23.55;;;;;;;29.00;27.56;100637.34;3607673;39;20062;-59
2021/06/05 10:46:37;;;;;;;21.00;12.77;;;;;;;29.15;27.69;100640.53;3606492;39;20066;-57
2021/06/05 10:49:31;;;;;;;2.15;1.35;;;;;;;29.39;29.14;100635.25;3607323;39;20077;-56
2021/06/05 10:52:04;;;;;;;5.45;0.90;;;;;;;29.24;28.64;100635.63;3605802;39;20064;-57
2021/06/05 10:54:36;;;;;;;1.67;1.00;;;;;;;29.06;28.21;100636.47;3607417;39;20055;-56
2021/06/05 10:57:25;;;;;;;3.13;1.15;;;;;;;28.74;26.08;100639.19;3607541;39;20072;-59
2021/06/05 11:00:21;;;;;;;2.05;1.00;;;;;;;28.10;28.71;100644.81;3607218;39;20338;-59
2021/06/05 11:02:52;;;;;;;2.35;0.75;;;;;;;28.22;30.80;100630.47;3607116;39;20043;-55
2021/06/05 11:05:24;;;;;;;3.38;0.90;;;;;;;28.25;29.09;100627.34;3605844;39;20056;-59
2021/06/05 11:08:16;;;;;;;2.50;1.20;;;;;;;28.27;32.27;100627.13;3607491;39;20051;-57
2021/06/05 11:11:16;;;;;;;10.03;1.63;;;;;;;28.64;28.75;100619.22;3607773;39;20044;-56
2021/06/05 11:13:43;;;;;;;2.83;1.08;;;;;;;29.06;30.08;100614.91;3607169;39;20050;-57
2021/06/05 11:16:17;;;;;;;6.72;1.00;;;;;;;29.31;27.92;100615.66;3607286;39;20101;-58
2021/06/05 11:18:57;;;;;;;2.45;1.00;;;;;;;29.68;29.11;100609.47;3607355;39;20047;-56
2021/06/05 11:21:26;;;;;;;4.95;1.00;;;;;;;29.36;26.95;100611.47;3607224;39;20426;-58
2021/06/05 11:23:56;;;;;;;3.50;0.95;;;;;;;29.42;26.09;100615.97;3607365;39;20046;-55
2021/06/05 11:29:21;;;;;;;2.95;1.48;;;;;;;28.75;30.34;100599.63;3607155;39;20822;-56
2021/06/05 11:31:54;;;;;;;4.70;1.10;;;;;;;29.05;31.74;100603.28;3607238;39;20039;-57
2021/06/05 11:34:37;;;;;;;3.40;0.90;;;;;;;29.29;30.26;100611.53;3607207;39;20410;-57
2021/06/05 11:37:13;;;;;;;2.42;0.80;;;;;;;29.67;27.60;100594.31;3607177;39;20055;-55
2021/06/05 11:39:51;;;;;;;2.28;0.82;;;;;;;29.67;25.02;100600.53;3607009;39;20056;-57
2021/06/05 11:42:19;;;;;;;96.57;52.88;;;;;;;29.77;26.33;100591.91;3607308;39;20130;-59
2021/06/05 11:45:09;;;;;;;16.35;9.73;;;;;;;30.40;26.55;100590.59;3605984;39;20062;-57
2021/06/05 11:47:43;;;;;;;3.50;1.20;;;;;;;30.90;24.14;100587.44;3605755;39;20059;-58
2021/06/05 11:50:10;;;;;;;3.58;1.00;;;;;;;30.04;23.55;100582.38;3605433;39;20355;-54
2021/06/05 11:52:42;;;;;;;4.78;1.23;;;;;;;30.81;24.08;100584.28;3607304;39;20052;-57
2021/06/05 11:55:35;;;;;;;3.13;1.10;;;;;;;31.06;24.26;100592.97;3607027;39;20383;-57